createdAt,value
2023-03-01T00:02:03.501Z,69.36
2023-03-01T00:04:29.867Z,70.35
2023-03-01T00:06:56.304Z,69.98
2023-03-01T00:09:22.654Z,69.53
2023-03-01T00:11:49.016Z,69.11
2023-03-01T00:14:17.259Z,69.82
2023-03-01T00:16:45.107Z,69.63
2023-03-01T00:19:17.232Z,69.57
2023-03-01T00:21:43.729Z,69.80
2023-03-01T00:24:10.548Z,69.37
2023-03-01T00:26:37.456Z,69.22
2023-03-01T00:29:04.397Z,69.64
2023-03-01T00:31:32.885Z,69.82
2023-03-01T00:34:02.386Z,70.09
2023-03-01T00:36:32.994Z,69.82
2023-03-01T00:38:59.998Z,69.59
2023-03-01T00:41:27.594Z,69.63
2023-03-01T00:43:54.774Z,70.41
2023-03-01T00:46:23.797Z,70.41
2023-03-01T00:48:50.487Z,71.01
2023-03-01T00:51:19.831Z,70.15
2023-03-01T00:53:47.708Z,70.51
2023-03-01T00:56:15.494Z,70.90
2023-03-01T00:58:42.769Z,70.35
2023-03-01T01:01:19.292Z,70.41
2023-03-01T01:03:51.758Z,71.02
2023-03-01T01:06:23.906Z,70.88
2023-03-01T01:08:51.549Z,70.99
2023-03-01T01:11:19.947Z,71.54
2023-03-01T01:13:47.914Z,71.45
2023-03-01T01:16:20.035Z,71.43
2023-03-01T01:18:46.657Z,71.10
2023-03-01T01:21:15.924Z,71.56
2023-03-01T01:23:42.894Z,72.14
2023-03-01T01:26:16.807Z,72.01
2023-03-01T01:28:43.665Z,72.73
2023-03-01T01:31:10.429Z,72.04
2023-03-01T01:33:38.300Z,72.65
2023-03-01T01:36:08.618Z,71.84
2023-03-01T01:38:36.502Z,72.36
2023-03-01T01:41:03.361Z,72.58
2023-03-01T01:43:34.636Z,72.12
2023-03-01T01:46:04.787Z,71.84
2023-03-01T01:48:45.716Z,72.69
2023-03-01T01:51:18.208Z,72.34
2023-03-01T01:53:47.568Z,72.41
2023-03-01T01:56:17.712Z,72.39
2023-03-01T01:58:44.867Z,72.35
2023-03-01T02:01:12.113Z,72.50
2023-03-01T02:03:43.102Z,72.51
2023-03-01T02:06:20.271Z,72.59
2023-03-01T02:08:50.183Z,72.16
2023-03-01T02:11:18.260Z,72.07
2023-03-01T02:13:47.758Z,71.82
2023-03-01T02:16:15.876Z,72.45
2023-03-01T02:18:44.333Z,72.67
2023-03-01T02:21:25.722Z,72.71
2023-03-01T02:23:52.101Z,72.78
2023-03-01T02:26:18.358Z,72.54
2023-03-01T02:28:46.003Z,72.58
2023-03-01T02:31:35.452Z,72.34
2023-03-01T02:34:05.343Z,73.13
2023-03-01T02:36:36.932Z,73.23
2023-03-01T02:39:07.083Z,72.15
2023-03-01T02:41:37.549Z,73.12
2023-03-01T02:44:04.878Z,72.79
2023-03-01T02:46:31.479Z,73.86
2023-03-01T02:48:59.881Z,73.54
2023-03-01T02:51:32.534Z,73.84
2023-03-01T02:54:29.895Z,73.76
2023-03-01T02:56:57.083Z,74.21
2023-03-01T02:59:30.325Z,74.29
2023-03-01T03:01:56.752Z,74.62
2023-03-01T03:04:23.253Z,74.69
2023-03-01T03:06:51.520Z,73.35
2023-03-01T03:09:19.289Z,73.82
2023-03-01T03:11:46.754Z,74.47
2023-03-01T03:14:15.376Z,73.97
2023-03-01T03:16:47.670Z,74.11
2023-03-01T03:19:15.027Z,73.56
2023-03-01T03:21:41.369Z,73.16
2023-03-01T03:24:07.741Z,73.86
2023-03-01T03:26:34.064Z,75.00
2023-03-01T03:29:00.394Z,75.20
2023-03-01T03:31:26.894Z,75.10
2023-03-01T03:33:53.323Z,75.37
2023-03-01T03:36:22.490Z,74.52
2023-03-01T03:38:49.761Z,74.93
2023-03-01T03:41:17.396Z,75.46
2023-03-01T03:43:44.264Z,75.49
2023-03-01T03:46:12.148Z,74.68
2023-03-01T03:48:41.898Z,75.55
2023-03-01T03:51:11.370Z,74.62
2023-03-01T03:53:38.005Z,74.98
2023-03-01T03:56:06.494Z,75.20
2023-03-01T03:58:33.138Z,75.81
2023-03-01T04:01:01.654Z,75.29
2023-03-01T04:03:30.299Z,75.29
2023-03-01T04:05:58.857Z,75.69
2023-03-01T04:08:25.657Z,75.49
2023-03-01T04:10:57.155Z,75.67
2023-03-01T04:13:26.010Z,75.40
2023-03-01T04:15:53.990Z,75.35
2023-03-01T04:18:21.956Z,75.95
2023-03-01T04:20:48.840Z,75.86
2023-03-01T04:23:20.840Z,76.24
2023-03-01T04:25:54.415Z,76.50
2023-03-01T04:28:35.039Z,74.77
2023-03-01T04:31:14.110Z,75.37
2023-03-01T04:33:52.490Z,74.73
2023-03-01T04:36:21.159Z,75.71
2023-03-01T04:38:50.504Z,75.28
2023-03-01T04:41:19.055Z,75.89
2023-03-01T04:43:46.036Z,75.83
2023-03-01T04:46:15.664Z,75.19
2023-03-01T04:48:44.134Z,75.21
2023-03-01T04:51:10.675Z,76.09
2023-03-01T04:53:37.423Z,75.94
2023-03-01T04:56:04.375Z,75.99
2023-03-01T04:58:31.259Z,77.45
2023-03-01T05:00:57.685Z,76.90
2023-03-01T05:03:24.149Z,76.45
2023-03-01T05:05:52.225Z,76.78
2023-03-01T05:08:19.398Z,77.07
2023-03-01T05:10:51.435Z,76.88
2023-03-01T05:13:21.911Z,78.31
2023-03-01T05:15:54.186Z,78.40
2023-03-01T05:18:20.542Z,78.16
2023-03-01T05:20:47.069Z,77.07
2023-03-01T05:23:13.755Z,77.63
2023-03-01T05:25:41.085Z,78.42
2023-03-01T05:28:12.176Z,78.24
2023-03-01T05:30:41.642Z,78.98
2023-03-01T05:33:14.199Z,78.45
2023-03-01T05:35:45.707Z,79.43
2023-03-01T05:38:16.687Z,79.33
2023-03-01T05:40:44.738Z,79.29
2023-03-01T05:43:13.017Z,79.49
2023-03-01T05:45:40.382Z,79.61
2023-03-01T05:48:08.209Z,79.15
2023-03-01T05:50:38.056Z,78.97
2023-03-01T05:53:15.780Z,79.01
2023-03-01T05:55:43.522Z,78.23
2023-03-01T05:58:16.184Z,80.06
2023-03-01T06:00:44.140Z,80.30
2023-03-01T06:03:12.466Z,78.44
2023-03-01T06:05:40.381Z,80.02
2023-03-01T06:08:07.071Z,78.76
2023-03-01T06:10:33.419Z,79.21
2023-03-01T06:12:59.760Z,79.55
2023-03-01T06:15:26.720Z,78.49
2023-03-01T06:17:58.781Z,78.10
2023-03-01T06:20:27.807Z,78.30
2023-03-01T06:22:54.378Z,78.15
2023-03-01T06:25:23.420Z,77.88
2023-03-01T06:27:50.060Z,79.25
2023-03-01T06:30:18.917Z,78.98
2023-03-01T06:32:45.392Z,78.26
2023-03-01T06:35:13.629Z,77.68
2023-03-01T06:37:41.494Z,79.26
2023-03-01T06:40:09.269Z,78.89
2023-03-01T06:42:36.733Z,77.48
2023-03-01T06:45:03.843Z,79.00
2023-03-01T06:47:30.159Z,77.95
2023-03-01T06:49:56.473Z,78.53
2023-03-01T06:52:23.134Z,78.71
2023-03-01T06:54:49.441Z,78.46
2023-03-01T06:57:15.774Z,79.10
2023-03-01T06:59:42.139Z,78.96
2023-03-01T07:02:11.731Z,77.90
2023-03-01T07:04:38.339Z,77.34
2023-03-01T07:07:05.029Z,78.16
2023-03-01T07:09:31.411Z,77.26
2023-03-01T07:11:58.544Z,77.30
2023-03-01T07:14:26.615Z,76.93
2023-03-01T07:16:56.115Z,76.44
2023-03-01T07:19:23.351Z,77.05
2023-03-01T07:21:49.809Z,76.37
2023-03-01T07:24:16.165Z,75.97
2023-03-01T07:26:42.562Z,75.02
2023-03-01T07:29:11.069Z,74.41
2023-03-01T07:31:37.682Z,74.39
2023-03-01T07:34:04.075Z,74.54
2023-03-01T07:36:30.786Z,74.59
2023-03-01T07:38:57.627Z,74.21
2023-03-01T07:41:24.031Z,73.52
2023-03-01T07:43:50.385Z,72.70
2023-03-01T07:46:16.863Z,72.75
2023-03-01T07:48:43.183Z,72.48
2023-03-01T07:51:10.662Z,72.19
2023-03-01T07:53:37.094Z,71.92
2023-03-01T07:56:11.306Z,71.69
2023-03-01T07:58:39.681Z,71.64
2023-03-01T08:01:08.338Z,71.38
2023-03-01T08:03:35.456Z,70.68
2023-03-01T08:06:03.655Z,70.25
2023-03-01T08:08:30.329Z,70.35
2023-03-01T08:11:01.527Z,69.69
2023-03-01T08:13:27.896Z,69.77
2023-03-01T08:15:54.466Z,68.37
2023-03-01T08:18:22.192Z,68.23
2023-03-01T08:20:48.749Z,68.42
2023-03-01T08:23:15.103Z,67.92
2023-03-01T08:25:41.664Z,67.99
2023-03-01T08:28:08.011Z,67.57
2023-03-01T08:30:35.354Z,67.16
2023-03-01T08:33:01.858Z,66.32
2023-03-01T08:35:28.261Z,66.20
2023-03-01T08:37:54.616Z,66.33
2023-03-01T08:40:20.954Z,64.92
2023-03-01T08:42:47.383Z,64.94
2023-03-01T08:45:15.083Z,65.19
2023-03-01T08:47:41.460Z,64.41
2023-03-01T08:50:08.567Z,64.37
2023-03-01T08:52:34.976Z,64.94
2023-03-01T08:55:02.438Z,63.67
2023-03-01T08:57:28.794Z,63.91
2023-03-01T08:59:56.976Z,62.50
2023-03-01T09:02:23.501Z,61.73
2023-03-01T09:04:49.961Z,61.71
2023-03-01T09:07:16.299Z,61.28
2023-03-01T09:09:42.615Z,59.65
2023-03-01T09:12:09.370Z,59.52
2023-03-01T09:14:38.105Z,59.11
2023-03-01T09:17:04.509Z,58.87
2023-03-01T09:19:30.929Z,59.13
2023-03-01T09:21:59.169Z,58.93
2023-03-01T09:24:25.979Z,58.48
2023-03-01T09:26:56.563Z,58.36
2023-03-01T09:29:23.762Z,57.50
2023-03-01T09:31:50.309Z,56.83
2023-03-01T09:34:23.994Z,57.11
2023-03-01T09:36:52.020Z,56.42
2023-03-01T09:39:19.110Z,56.29
2023-03-01T09:41:48.092Z,57.00
2023-03-01T09:44:20.007Z,55.72
2023-03-01T09:46:47.107Z,55.39
2023-03-01T09:49:20.515Z,55.04
2023-03-01T09:52:00.279Z,53.55
2023-03-01T09:54:27.116Z,52.47
2023-03-01T09:57:14.005Z,52.59
2023-03-01T10:00:01.671Z,53.09
2023-03-01T10:02:44.640Z,54.31
2023-03-01T10:05:35.368Z,52.25
2023-03-01T10:08:06.980Z,51.58
2023-03-01T10:10:39.297Z,51.45
2023-03-01T10:13:25.030Z,51.14
2023-03-01T10:15:58.522Z,50.86
2023-03-01T10:18:32.500Z,50.90
2023-03-01T10:21:01.436Z,49.94
2023-03-01T10:23:31.709Z,50.39
2023-03-01T10:26:05.266Z,50.03
2023-03-01T10:28:59.575Z,50.21
2023-03-01T10:31:38.181Z,50.13
2023-03-01T10:34:31.259Z,48.74
2023-03-01T10:37:01.845Z,48.70
2023-03-01T10:39:28.385Z,48.30
2023-03-01T10:41:58.247Z,48.41
2023-03-01T10:44:48.869Z,48.05
2023-03-01T10:47:25.431Z,47.78
2023-03-01T10:50:02.484Z,47.37
2023-03-01T10:52:34.089Z,48.03
2023-03-01T10:55:04.685Z,47.30
2023-03-01T10:57:34.294Z,46.69
2023-03-01T11:00:23.302Z,47.44
2023-03-01T11:03:00.426Z,47.07
2023-03-01T11:05:29.278Z,45.98
2023-03-01T11:07:57.922Z,46.12
2023-03-01T11:10:30.296Z,45.42
2023-03-01T11:13:20.601Z,46.16
2023-03-01T11:16:01.062Z,45.45
2023-03-01T11:18:44.240Z,46.20
2023-03-01T11:21:13.675Z,45.37
2023-03-01T11:23:40.759Z,46.13
2023-03-01T11:26:11.628Z,47.05
2023-03-01T11:28:41.043Z,44.99
2023-03-01T11:31:13.147Z,44.35
2023-03-01T11:33:49.119Z,44.85
2023-03-01T11:36:30.546Z,44.63
2023-03-01T11:39:01.436Z,43.21
2023-03-01T11:41:33.049Z,43.68
2023-03-01T11:44:10.906Z,44.06
2023-03-01T11:47:02.002Z,44.16
2023-03-01T11:50:04.048Z,43.36
2023-03-01T11:52:33.743Z,43.29
2023-03-01T11:55:18.601Z,42.51
2023-03-01T11:57:47.947Z,42.93
2023-03-01T12:00:17.240Z,42.06
2023-03-01T12:03:13.003Z,42.38
2023-03-01T12:06:00.526Z,41.60
2023-03-01T12:08:36.600Z,41.31
2023-03-01T12:11:59.823Z,39.95
2023-03-01T12:14:44.094Z,40.34
2023-03-01T12:17:25.280Z,40.67
2023-03-01T12:20:22.828Z,41.56
2023-03-01T12:23:14.621Z,40.11
2023-03-01T12:26:03.312Z,39.76
2023-03-01T12:28:49.880Z,40.63
2023-03-01T12:31:55.497Z,39.93
2023-03-01T12:35:10.659Z,39.68
2023-03-01T12:38:14.244Z,40.74
2023-03-01T12:41:04.694Z,39.68
2023-03-01T12:43:41.487Z,40.15
2023-03-01T12:46:32.635Z,40.42
2023-03-01T12:49:24.427Z,39.33
2023-03-01T12:52:21.959Z,40.03
2023-03-01T12:54:50.103Z,39.02
2023-03-01T12:57:26.740Z,38.91
2023-03-01T13:00:23.065Z,39.45
2023-03-01T13:02:59.103Z,39.91
2023-03-01T13:05:31.586Z,40.01
2023-03-01T13:08:35.569Z,40.76
2023-03-01T13:11:08.132Z,40.16
2023-03-01T13:13:34.481Z,40.46
2023-03-01T13:16:30.336Z,39.94
2023-03-01T13:19:22.819Z,40.68
2023-03-01T13:21:50.982Z,39.61
2023-03-01T13:24:41.161Z,40.24
2023-03-01T13:27:07.580Z,40.80
2023-03-01T13:29:51.990Z,40.80
2023-03-01T13:32:44.270Z,39.88
2023-03-01T13:35:20.652Z,39.39
2023-03-01T13:37:47.845Z,39.05
2023-03-01T13:40:17.763Z,38.87
2023-03-01T13:42:53.674Z,39.79
2023-03-01T13:45:43.861Z,40.69
2023-03-01T13:48:24.060Z,40.57
2023-03-01T13:50:55.641Z,40.13
2023-03-01T13:53:30.469Z,40.11
2023-03-01T13:56:04.528Z,39.62
2023-03-01T13:58:44.799Z,39.42
2023-03-01T14:01:30.133Z,39.39
2023-03-01T14:03:57.126Z,40.23
2023-03-01T14:06:32.821Z,40.55
2023-03-01T14:09:05.579Z,40.84
2023-03-01T14:12:01.392Z,40.94
2023-03-01T14:14:45.768Z,42.27
2023-03-01T14:17:25.696Z,41.84
2023-03-01T14:19:58.486Z,41.76
2023-03-01T14:22:29.383Z,42.63
2023-03-01T14:25:02.085Z,42.23
2023-03-01T14:27:37.212Z,42.49
2023-03-01T14:30:11.155Z,42.51
2023-03-01T14:32:37.546Z,41.78
2023-03-01T14:35:28.834Z,42.85
2023-03-01T14:37:55.284Z,41.39
2023-03-01T14:40:26.203Z,41.38
2023-03-01T14:42:54.657Z,41.78
2023-03-01T14:45:21.119Z,41.70
2023-03-01T14:47:48.233Z,41.69
2023-03-01T14:50:28.391Z,42.46
2023-03-01T14:52:59.142Z,42.30
2023-03-01T14:55:36.978Z,41.68
2023-03-01T14:58:06.058Z,41.51
2023-03-01T15:00:35.227Z,41.88
2023-03-01T15:03:10.688Z,41.20
2023-03-01T15:05:37.762Z,40.97
2023-03-01T15:08:05.323Z,40.42
2023-03-01T15:10:34.989Z,40.55
2023-03-01T15:13:43.439Z,40.97
2023-03-01T15:16:12.610Z,40.61
2023-03-01T15:18:45.623Z,40.95
2023-03-01T15:21:23.788Z,41.04
2023-03-01T15:23:54.489Z,42.25
2023-03-01T15:26:26.948Z,42.05
2023-03-01T15:28:58.953Z,41.60
2023-03-01T15:31:29.003Z,41.03
2023-03-01T15:34:25.739Z,41.30
2023-03-01T15:36:54.764Z,40.79
2023-03-01T15:39:44.225Z,41.80
2023-03-01T15:42:30.704Z,41.75
2023-03-01T15:45:22.017Z,41.96
2023-03-01T15:47:51.188Z,41.93
2023-03-01T15:50:30.018Z,41.71
2023-03-01T15:52:59.934Z,42.10
2023-03-01T15:55:30.549Z,42.56
2023-03-01T15:58:04.371Z,42.28
2023-03-01T16:00:30.971Z,42.59
2023-03-01T16:02:57.670Z,42.55
2023-03-01T16:05:27.850Z,41.89
2023-03-01T16:07:54.744Z,41.53
2023-03-01T16:10:21.826Z,41.34
2023-03-01T16:12:48.353Z,41.65
2023-03-01T16:15:19.343Z,42.65
2023-03-01T16:17:45.827Z,42.65
2023-03-01T16:20:28.368Z,42.70
2023-03-01T16:22:58.750Z,42.98
2023-03-01T16:25:25.095Z,42.85
2023-03-01T16:27:53.096Z,42.95
2023-03-01T16:30:21.683Z,42.78
2023-03-01T16:32:49.448Z,43.51
2023-03-01T16:35:19.229Z,43.92
2023-03-01T16:37:46.249Z,43.30
2023-03-01T16:40:27.966Z,43.02
2023-03-01T16:43:00.118Z,42.89
2023-03-01T16:45:28.325Z,43.28
2023-03-01T16:47:56.121Z,42.97
2023-03-01T16:50:23.408Z,43.00
2023-03-01T16:52:50.165Z,43.31
2023-03-01T16:55:16.662Z,43.09
2023-03-01T16:57:43.316Z,43.30
2023-03-01T17:00:13.564Z,43.60
2023-03-01T17:02:41.885Z,44.31
2023-03-01T17:05:10.743Z,44.44
2023-03-01T17:07:37.464Z,44.62
2023-03-01T17:10:08.886Z,44.92
2023-03-01T17:12:35.868Z,45.12
2023-03-01T17:15:02.855Z,45.14
2023-03-01T17:17:29.224Z,44.99
2023-03-01T17:19:55.542Z,45.46
2023-03-01T17:22:21.961Z,45.67
2023-03-01T17:24:48.579Z,46.25
2023-03-01T17:27:15.889Z,45.99
2023-03-01T17:29:42.285Z,46.02
2023-03-01T17:32:09.527Z,46.50
2023-03-01T17:34:37.274Z,46.30
2023-03-01T17:37:03.629Z,47.00
2023-03-01T17:39:35.903Z,46.62
2023-03-01T17:42:06.048Z,47.13
2023-03-01T17:44:36.361Z,47.59
2023-03-01T17:47:04.135Z,46.73
2023-03-01T17:49:31.057Z,47.35
2023-03-01T17:51:57.658Z,46.84
2023-03-01T17:54:24.361Z,46.86
2023-03-01T17:56:51.468Z,48.04
2023-03-01T17:59:18.111Z,47.98
2023-03-01T18:01:45.114Z,47.72
2023-03-01T18:04:11.555Z,48.84
2023-03-01T18:06:38.062Z,48.65
2023-03-01T18:09:04.842Z,48.95
2023-03-01T18:11:34.051Z,48.74
2023-03-01T18:14:00.781Z,49.36
2023-03-01T18:16:28.660Z,49.80
2023-03-01T18:18:56.788Z,49.43
2023-03-01T18:21:23.528Z,49.25
2023-03-01T18:23:50.081Z,49.37
2023-03-01T18:26:20.312Z,49.45
2023-03-01T18:28:50.636Z,50.26
2023-03-01T18:31:18.414Z,50.20
2023-03-01T18:33:46.458Z,50.34
2023-03-01T18:36:18.099Z,50.19
2023-03-01T18:38:44.631Z,50.23
2023-03-01T18:41:11.163Z,50.17
2023-03-01T18:43:40.050Z,50.67
2023-03-01T18:46:06.628Z,50.68
2023-03-01T18:48:33.227Z,50.98
2023-03-01T18:51:08.513Z,51.16
2023-03-01T18:53:34.850Z,51.62
2023-03-01T18:56:02.145Z,51.39
2023-03-01T18:58:28.760Z,51.06
2023-03-01T19:00:55.129Z,51.90
2023-03-01T19:03:21.500Z,51.42
2023-03-01T19:05:47.828Z,52.04
2023-03-01T19:08:14.592Z,51.78
2023-03-01T19:10:41.012Z,51.79
2023-03-01T19:13:07.405Z,51.90
2023-03-01T19:15:33.803Z,52.38
2023-03-01T19:18:01.532Z,52.25
2023-03-01T19:20:27.877Z,52.33
2023-03-01T19:22:54.235Z,52.66
2023-03-01T19:25:20.566Z,53.20
2023-03-01T19:27:48.944Z,53.12
2023-03-01T19:30:15.600Z,53.20
2023-03-01T19:32:41.978Z,53.19
2023-03-01T19:35:08.560Z,53.20
2023-03-01T19:37:35.226Z,53.24
2023-03-01T19:40:01.784Z,53.66
2023-03-01T19:42:28.254Z,53.30
2023-03-01T19:44:55.034Z,53.74
2023-03-01T19:47:21.459Z,53.56
2023-03-01T19:49:47.982Z,54.04
2023-03-01T19:52:14.323Z,54.37
2023-03-01T19:54:40.660Z,54.04
2023-03-01T19:57:07.006Z,54.69
2023-03-01T19:59:33.514Z,54.55
2023-03-01T20:02:00.202Z,54.40
2023-03-01T20:04:26.660Z,54.61
2023-03-01T20:06:53.004Z,54.72
2023-03-01T20:09:22.139Z,54.65
2023-03-01T20:11:50.281Z,55.10
2023-03-01T20:14:17.305Z,54.79
2023-03-01T20:16:43.676Z,55.13
2023-03-01T20:19:10.013Z,55.30
2023-03-01T20:21:36.428Z,55.18
2023-03-01T20:24:02.782Z,55.14
2023-03-01T20:26:29.199Z,55.50
2023-03-01T20:28:56.981Z,55.36
2023-03-01T20:31:29.211Z,55.41
2023-03-01T20:33:58.199Z,55.56
2023-03-01T20:36:25.605Z,56.02
2023-03-01T20:38:53.360Z,55.46
2023-03-01T20:41:20.146Z,55.82
2023-03-01T20:43:54.397Z,55.98
2023-03-01T20:46:21.133Z,56.21
2023-03-01T20:48:47.474Z,55.95
2023-03-01T20:51:13.868Z,56.62
2023-03-01T20:53:40.685Z,56.14
2023-03-01T20:56:10.826Z,55.67
2023-03-01T20:58:38.063Z,56.35
2023-03-01T21:01:06.355Z,56.76
2023-03-01T21:03:33.496Z,56.52
2023-03-01T21:06:02.309Z,56.18
2023-03-01T21:08:29.880Z,56.62
2023-03-01T21:10:57.714Z,56.95
2023-03-01T21:13:25.356Z,56.58
2023-03-01T21:15:56.519Z,56.82
2023-03-01T21:18:23.609Z,56.86
2023-03-01T21:20:49.957Z,57.16
2023-03-01T21:23:19.199Z,57.10
2023-03-01T21:25:45.562Z,56.59
2023-03-01T21:28:11.898Z,56.90
2023-03-01T21:30:38.381Z,56.76
2023-03-01T21:33:04.754Z,57.25
2023-03-01T21:35:31.128Z,57.36
2023-03-01T21:37:57.501Z,57.03
2023-03-01T21:40:23.822Z,57.04
2023-03-01T21:42:50.276Z,57.05
2023-03-01T21:45:16.750Z,56.97
2023-03-01T21:47:43.230Z,56.90
2023-03-01T21:50:10.213Z,56.92
2023-03-01T21:52:36.561Z,57.75
2023-03-01T21:55:04.082Z,57.26
2023-03-01T21:57:30.404Z,57.47
2023-03-01T21:59:56.939Z,57.00
2023-03-01T22:02:23.307Z,57.56
2023-03-01T22:04:57.131Z,57.69
2023-03-01T22:07:23.615Z,57.95
2023-03-01T22:09:49.973Z,57.50
2023-03-01T22:12:16.302Z,58.30
2023-03-01T22:14:43.856Z,58.21
2023-03-01T22:17:10.335Z,58.44
2023-03-01T22:19:36.707Z,57.72
2023-03-01T22:22:03.825Z,58.13
2023-03-01T22:24:30.274Z,57.73
2023-03-01T22:26:56.770Z,58.21
2023-03-01T22:29:28.889Z,57.23
2023-03-01T22:31:57.148Z,58.47
2023-03-01T22:34:24.160Z,58.36
2023-03-01T22:36:50.556Z,58.32
2023-03-01T22:39:19.635Z,58.61
2023-03-01T22:41:47.857Z,58.86
2023-03-01T22:44:16.277Z,58.95
2023-03-01T22:46:43.141Z,58.83
2023-03-01T22:49:10.212Z,58.75
2023-03-01T22:51:39.399Z,59.28
2023-03-01T22:54:06.988Z,58.59
2023-03-01T22:56:35.362Z,58.76
2023-03-01T22:59:04.400Z,58.90
2023-03-01T23:01:31.197Z,58.61
2023-03-01T23:03:57.794Z,58.96
2023-03-01T23:06:24.759Z,58.95
2023-03-01T23:08:52.997Z,58.74
2023-03-01T23:11:21.050Z,59.44
2023-03-01T23:13:48.466Z,58.88
2023-03-01T23:16:15.812Z,59.09
2023-03-01T23:18:42.790Z,58.81
2023-03-01T23:21:15.838Z,60.09
2023-03-01T23:23:42.484Z,60.15
2023-03-01T23:26:09.249Z,59.84
2023-03-01T23:28:40.614Z,59.64
2023-03-01T23:31:10.155Z,60.09
2023-03-01T23:33:39.770Z,59.34
2023-03-01T23:36:24.539Z,60.13
2023-03-01T23:38:53.010Z,60.18
2023-03-01T23:41:22.473Z,60.16
2023-03-01T23:43:51.419Z,60.14
2023-03-01T23:46:19.760Z,59.00
2023-03-01T23:48:46.522Z,59.99
2023-03-01T23:51:14.838Z,59.42
2023-03-01T23:53:54.121Z,59.63
2023-03-01T23:56:33.191Z,60.63
2023-03-01T23:59:02.595Z,60.22
